Cebollita Spring, Valles Caldera, New Mexico Weather observations

Data are for 10 minute period ending at time listed.
 Day   Time   Solar   Ave.   Ave.  Ave.  Vector  Max.   Baro.   Total    
  of    of     Rad.   Air    Rel.  Wind   Wind   Wind  Press.  Precip.   
Year   Day            Temp.  Hum.  Speed  Dir.   Gust                    
2014   (MST)  Kw/m2    F      %     mph   deg.    mph    mb.     in.     
-------------------------------------------------------------------------
 327    6:30   0.00   29.0    80    8.1   275    18.5   99999.0    0.00 
 327    6:40   0.00   28.6    79    8.1   289    19.1   99999.0    0.00 
 327    6:50   0.00   28.5    76   10.4   289    22.1   99999.0    0.00 
 327    7:00   0.00   28.0    79    8.8   284    21.5   99999.0    0.00 
 327    7:10   0.01   27.1    84    9.1   294    23.3   99999.0    0.00 
 327    7:20   0.03   26.9    82    9.3   292    23.3   99999.0    0.00 
 327    7:30   0.02   26.6    83    8.8   294    22.1   99999.0    0.00 
 327    7:40   0.04   26.4    83    6.6   303    18.8   99999.0    0.00 
 327    7:50   0.07   26.8    80    8.8   284    16.7   99999.0    0.00 
 327    8:00   0.08   26.7    81    7.5   283    14.3   99999.0    0.00 
 327    8:10   0.07   27.2    77    9.5   293    24.5   99999.0    0.00 
 327    8:20   0.07   27.3    75   10.3   288    20.9   99999.0    0.00 
 327    8:30   0.07   27.5    74    6.5   307    12.5   99999.0    0.00 
 327    8:40   0.07   27.4    74    8.6   293    23.3   99999.0    0.00 
 327    8:50   0.07   27.3    74    9.1   282    24.5   99999.0    0.00 
 327    9:00   0.07   27.2    74    9.7   283    18.5   99999.0    0.00 
 327    9:10   0.05   27.1    76    9.3   284    22.1   99999.0    0.00 
 327    9:20   0.06   27.0    76   11.4   290    23.3   99999.0    0.00 
 327    9:30   0.06   27.0    76    7.9   295    16.7   99999.0    0.00 
 327    9:40   0.09   27.3    73    9.0   292    17.6   99999.0    0.00 
 327    9:50   0.14   27.5    73    8.3   292    16.7   99999.0    0.00 
 327   10:00   0.17   28.2    70    8.6   285    19.7   99999.0    0.00 
 327   10:10   0.13   28.1    72    8.6   282    17.3   99999.0    0.00 
 327   10:20   0.13   28.0    71    9.3   280    20.3   99999.0    0.00 
 327   10:30   0.19   28.4    70    9.4   278    21.5   99999.0    0.00 
 327   10:40   0.25   28.4    68   14.2   288    29.8   99999.0    0.00 
 327   10:50   0.34   29.2    65   11.1   278    21.5   99999.0    0.00 
 327   11:00   0.31   29.0    65   12.1   284    23.3   99999.0    0.00 
 327   11:10   0.22   29.2    66   10.2   273    17.9   99999.0    0.00 
 327   11:20   0.38   29.1    67   11.2   276    20.6   99999.0    0.00 
 327   11:30   0.55   30.2    65   10.7   290    22.7   99999.0    0.00 
 327   11:40   0.24   30.0    63    9.9   274    20.9   99999.0    0.00 
 327   11:50   0.61   30.0    63   11.6   275    19.1   99999.0    0.00 
 327   12:00   0.38   29.3    66   10.6   273    22.1   99999.0    0.00 
 327   12:10   0.31   28.8    68   12.1   280    20.3   99999.0    0.00 
 327   12:20   0.56   28.9    72   12.5   279    27.4   99999.0    0.00 
 327   12:30   0.59   29.2    71   11.3   279    26.2   99999.0    0.00 
 327   12:40   0.69   29.3    65   12.8   273    25.0   99999.0    0.00 
 327   12:50   0.72   30.0    62   11.8   285    21.5   99999.0    0.00 
 327   13:00   0.67   30.3    59   11.4   269    25.0   99999.0    0.00 
 327   13:10   0.65   29.5    56   15.2   275    26.8   99999.0    0.00 
 327   13:20   0.64   30.0    55   12.5   283    25.6   99999.0    0.00 
 327   13:30   0.55   29.7    54   13.1   279    24.5   99999.0    0.00 
 327   13:40   0.61   29.7    50   12.9   283    28.0   99999.0    0.00 
 327   13:50   0.53   29.6    47   11.6   276    25.0   99999.0    0.00 
 327   14:00   0.53   29.6    48   12.7   279    27.4   99999.0    0.00 
 327   14:10   0.28   28.8    53   12.1   275    22.1   99999.0    0.00 
 327   14:20   0.38   28.3    53   13.6   271    27.4   99999.0    0.00 
 327   14:30   0.48   28.4    48   15.0   278    30.4   99999.0    0.00 
 327   14:40   0.49   29.0    47   10.0   283    22.1   99999.0    0.00 
 327   14:50   0.40   29.4    45   11.5   284    28.0   99999.0    0.00 
 327   15:00   0.36   28.6    46   10.4   274    22.1   99999.0    0.00 
 327   15:10   0.36   28.6    46   12.3   282    29.8   99999.0    0.00 
 327   15:20   0.15   27.9    48   15.3   276    28.6   99999.0    0.00 
 327   15:30   0.23   27.7    49   12.9   272    26.8   99999.0    0.00 
 327   15:40   0.28   29.1    47   11.0   290    21.2   99999.0    0.00 
 327   15:50   0.20   29.2    48   10.7   291    20.9   99999.0    0.00 
 327   16:00   0.21   29.2    48   10.7   293    27.4   99999.0    0.00 
 327   16:10   0.18   28.6    49   10.8   291    22.1   99999.0    0.00 
 327   16:20   0.15   28.4    50   10.6   285    20.9   99999.0    0.00 
 327   16:30   0.10   27.4    51   11.8   288    26.2   99999.0    0.00 
 327   16:40   0.06   26.7    52   10.0   284    19.7   99999.0    0.00 
 327   16:50   0.02   26.3    52   10.7   290    22.1   99999.0    0.00 
 327   17:00   0.01   26.0    53   11.3   286    21.5   99999.0    0.00 
 327   17:10   0.00   25.7    54   10.9   290    26.2   99999.0    0.00 
 327   17:20   0.00   25.5    53   13.2   299    26.2   99999.0    0.00 
 327   17:30   0.00   25.3    52   12.4   291    26.2   99999.0    0.00 
 327   17:40   0.00   24.8    53   10.3   288    18.5   99999.0    0.00 
 327   17:50   0.00   24.6    52   11.6   295    25.6   99999.0    0.00 
 327   18:00   0.00   24.5    52   11.0   295    26.8   99999.0    0.00 
 327   18:10   0.00   24.2    53   10.1   294    23.9   99999.0    0.00 
 327   18:20   0.00   24.2    53   10.6   289    22.7   99999.0    0.00 
 327   18:30   0.00   24.0    52   10.3   302    22.7   99999.0    0.00 
 327   18:40   0.00   23.9    52   10.6   297    26.2   99999.0    0.00 
 327   18:50   0.00   23.8    51    8.8   301    17.9   99999.0    0.00 
 327   19:00   0.00   23.7    49    9.7   300    31.0   99999.0    0.00 
 327   19:10   0.00   23.8    46    8.7   296    19.1   99999.0    0.00 
 327   19:20   0.00   23.6    46    8.8   303    20.3   99999.0    0.00 
 327   19:30   0.00   23.6    46   11.6   298    23.9   99999.0    0.00 
 327   19:40   0.00   23.5    46    9.0   291    19.7   99999.0    0.00 
 327   19:50   0.00   23.3    46   11.0   301    25.0   99999.0    0.00 
 327   20:00   0.00   23.0    48    7.4   303    24.5   99999.0    0.00 
 327   20:10   0.00   22.8    49    8.5   306    20.9   99999.0    0.00 
 327   20:20   0.00   22.4    51    7.4   302    17.3   99999.0    0.00 
 327   20:30   0.00   22.2    51    7.9   307    18.5   99999.0    0.00 
 327   20:40   0.00   22.1    50    6.5   312    16.1   99999.0    0.00 
 327   20:50   0.00   21.8    51    7.3   302    16.4   99999.0    0.00 
 327   21:00   0.00   21.7    52    8.5   306    24.5   99999.0    0.00 
 327   21:10   0.00   21.4    54    7.5   302    13.7   99999.0    0.00 
 327   21:20   0.00   21.2    54    7.5   302    17.9   99999.0    0.00 
 327   21:30   0.00   21.2    52    9.5   303    19.1   99999.0    0.00 
 327   21:40   0.00   21.1    51   11.1   305    23.9   99999.0    0.00 
 327   21:50   0.00   21.0    50    8.1   316    17.3   99999.0    0.00 
 327   22:00   0.00   20.8    47    7.4   330    18.5   99999.0    0.00 
 327   22:10   0.00   20.6    46    5.4   352    11.9   99999.0    0.00 
 327   22:20   0.00   20.2    47    3.5   338     9.0   99999.0    0.00 
 327   22:30   0.00   19.6    47    3.1   346    11.3   99999.0    0.00 
 327   22:40   0.00   19.4    45    4.3   311     9.6   99999.0    0.00 
 327   22:50   0.00   19.6    43    5.7   309     9.6   99999.0    0.00 
 327   23:00   0.00   19.9    41    5.0   311    10.2   99999.0    0.00 
 327   23:10   0.00   19.5    42    4.1   311    10.8   99999.0    0.00 
 327   23:20   0.00   19.3    46    6.1   304    11.9   99999.0    0.00 
 327   23:30   0.00   19.2    49    5.6   290    13.1   99999.0    0.00 
 327   23:40   0.00   18.6    53    4.6   289    11.9   99999.0    0.00 
 327   23:50   0.00   18.6    57    7.0   293    13.1   99999.0    0.00 
 328    0:00   0.00   18.6    60    6.0   292    13.1   99999.0    0.00 
 328    0:10   0.00   18.4    63    7.4   290    14.9   99999.0    0.00 
 328    0:20   0.00   18.6    64    6.6   306    11.3   99999.0    0.00 
 328    0:30   0.00   18.0    65    5.1   306     9.6   99999.0    0.00 
 328    0:40   0.00   17.5    66    4.5   313    10.8   99999.0    0.00 
 328    0:50   0.00   17.8    65    5.8   310    10.8   99999.0    0.00 
 328    1:00   0.00   17.9    65    5.6   319    10.2   99999.0    0.00 
 328    1:10   0.00   18.0    64    5.3   338    10.2   99999.0    0.00 
 328    1:20   0.00   18.0    64    5.0   332    11.3   99999.0    0.00 
 328    1:30   0.00   18.0    65    6.8   320    12.5   99999.0    0.00 
 328    1:40   0.00   18.3    66    6.0   322    13.7   99999.0    0.00 
 328    1:50   0.00   18.0    66    6.2   315    13.1   99999.0    0.00 
 328    2:00   0.00   18.1    67    9.3   313    18.5   99999.0    0.00 
 328    2:10   0.00   17.9    67    6.9   321    15.5   99999.0    0.00 
 328    2:20   0.00   18.0    65    8.3   310    19.7   99999.0    0.00 
 328    2:30   0.00   17.8    64    6.6   312    11.3   99999.0    0.00 
 328    2:40   0.00   17.8    61    7.5   312    14.3   99999.0    0.00 
 328    2:50   0.00   18.4    57    9.1   326    14.9   99999.0    0.00 
 328    3:00   0.00   18.1    57    7.6   318    16.1   99999.0    0.00 
 328    3:10   0.00   18.2    54    7.8   331    16.7   99999.0    0.00 
 328    3:20   0.00   18.4    52   10.0   319    20.9   99999.0    0.00 
 328    3:30   0.00   18.4    52    8.6   326    22.7   99999.0    0.00 
 328    3:40   0.00   18.2    51    7.6   323    14.9   99999.0    0.00 
 328    3:50   0.00   18.1    52    7.8   313    19.7   99999.0    0.00 
 328    4:00   0.00   18.1    50    8.9   332    16.7   99999.0    0.00 
 328    4:10   0.00   18.3    49    9.3   326    22.1   99999.0    0.00 
 328    4:20   0.00   18.0    49    7.6   326    17.9   99999.0    0.00 
 328    4:30   0.00   17.5    50    6.9   315    14.9   99999.0    0.00 
 328    4:40   0.00   17.8    49    8.9   305    17.9   99999.0    0.00 
 328    4:50   0.00   18.0    48    8.4   304    18.5   99999.0    0.00 
 328    5:00   0.00   18.3    45    9.6   297    20.9   99999.0    0.00 
 328    5:10   0.00   18.5    44   10.2   297    22.1   99999.0    0.00 
 328    5:20   0.00   18.5    44    9.6   310    20.3   99999.0    0.00 
 328    5:30   0.00   18.4    45   11.3   306    23.3   99999.0    0.00 
 328    5:40   0.00   18.2    48   11.2   309    24.5   99999.0    0.00 
 328    5:50   0.00   18.2    49   10.0   312    23.9   99999.0    0.00 
 328    6:00   0.00   18.1    50   10.4   313    22.1   99999.0    0.00 
 328    6:10   0.00   17.9    51    7.8   315    17.9   99999.0    0.00 
 328    6:20   0.00   17.6    51    6.9   313    15.5   99999.0    0.00 

Return to Cebollita Spring, Valles Caldera graphs page.


Western Regional Climate Center,wrcc@dri.edu